X  Close Metar Aviation Weather Data     EBBR Brussels
Temperature
11°C Temperature
6°C Dewpoint
72% Humidity



Wind
13 KM/H
8 MPH
4 M/S
7 KTS



280°
West
Current Conditions

Clear Clear
Pressure 999.92 (hPa) - 29.53 (inHg)
Visibility 6.2 (mile) - 10 (km)
Airport
Airport-code EBBR

Location: Brussels
Distance: 14 (km)

Metar:
EBBR 042250Z 28007KT CAVOK 11/06 Q1000 NOSIG

Time: 2020-06-05 00:50 CEST